sensor_id;sensor_type;location;lat;lon;timestamp;temperature;humidity
9808;DHT22;4943;52.550;13.462;2023-07-31T00:00:01;19.80;99.90
9808;DHT22;4943;52.550;13.462;2023-07-31T00:02:30;19.80;99.90
9808;DHT22;4943;52.550;13.462;2023-07-31T00:04:58;19.80;99.90
9808;DHT22;4943;52.550;13.462;2023-07-31T00:07:26;19.80;99.90
9808;DHT22;4943;52.550;13.462;2023-07-31T00:09:54;19.70;99.90
9808;DHT22;4943;52.550;13.462;2023-07-31T00:12:23;19.70;99.90
9808;DHT22;4943;52.550;13.462;2023-07-31T00:14:53;19.60;99.90
9808;DHT22;4943;52.550;13.462;2023-07-31T00:17:21;19.50;99.90
9808;DHT22;4943;52.550;13.462;2023-07-31T00:19:49;19.40;99.90
9808;DHT22;4943;52.550;13.462;2023-07-31T00:22:17;19.40;99.90
9808;DHT22;4943;52.550;13.462;2023-07-31T00:24:45;19.30;99.90
9808;DHT22;4943;52.550;13.462;2023-07-31T00:27:13;19.30;99.90
9808;DHT22;4943;52.550;13.462;2023-07-31T00:29:42;19.20;99.90
9808;DHT22;4943;52.550;13.462;2023-07-31T00:32:11;19.20;99.90
9808;DHT22;4943;52.550;13.462;2023-07-31T00:34:39;19.10;99.90
9808;DHT22;4943;52.550;13.462;2023-07-31T00:37:07;19.10;99.90
9808;DHT22;4943;52.550;13.462;2023-07-31T00:39:35;19.10;99.90
9808;DHT22;4943;52.550;13.462;2023-07-31T00:42:04;19.10;99.90
9808;DHT22;4943;52.550;13.462;2023-07-31T00:44:32;19.00;99.90
9808;DHT22;4943;52.550;13.462;2023-07-31T00:47:00;19.00;99.90
9808;DHT22;4943;52.550;13.462;2023-07-31T00:49:30;19.00;99.90
9808;DHT22;4943;52.550;13.462;2023-07-31T00:51:59;19.00;99.90
9808;DHT22;4943;52.550;13.462;2023-07-31T00:54:27;19.00;99.90
9808;DHT22;4943;52.550;13.462;2023-07-31T00:56:56;19.00;99.90
9808;DHT22;4943;52.550;13.462;2023-07-31T00:59:25;19.00;99.90
9808;DHT22;4943;52.550;13.462;2023-07-31T01:01:53;19.00;99.90
9808;DHT22;4943;52.550;13.462;2023-07-31T01:04:21;19.00;99.90
9808;DHT22;4943;52.550;13.462;2023-07-31T01:06:58;19.00;99.90
9808;DHT22;4943;52.550;13.462;2023-07-31T01:09:33;19.00;99.90
9808;DHT22;4943;52.550;13.462;2023-07-31T01:12:07;19.00;99.90
9808;DHT22;4943;52.550;13.462;2023-07-31T01:14:35;19.00;99.90
9808;DHT22;4943;52.550;13.462;2023-07-31T01:17:03;19.00;99.90
9808;DHT22;4943;52.550;13.462;2023-07-31T01:19:31;19.10;99.90
9808;DHT22;4943;52.550;13.462;2023-07-31T01:22:29;19.10;99.90
9808;DHT22;4943;52.550;13.462;2023-07-31T01:25:10;19.10;99.90
9808;DHT22;4943;52.550;13.462;2023-07-31T01:27:48;19.10;99.90
9808;DHT22;4943;52.550;13.462;2023-07-31T01:30:22;19.10;99.90
9808;DHT22;4943;52.550;13.462;2023-07-31T01:32:54;19.10;99.90
9808;DHT22;4943;52.550;13.462;2023-07-31T01:35:22;19.10;99.90
9808;DHT22;4943;52.550;13.462;2023-07-31T01:37:52;19.10;99.90
9808;DHT22;4943;52.550;13.462;2023-07-31T01:40:21;19.10;99.90
9808;DHT22;4943;52.550;13.462;2023-07-31T01:42:50;19.10;99.90
9808;DHT22;4943;52.550;13.462;2023-07-31T01:45:18;19.10;99.90
9808;DHT22;4943;52.550;13.462;2023-07-31T01:47:48;19.10;99.90
9808;DHT22;4943;52.550;13.462;2023-07-31T01:50:16;19.20;99.90
9808;DHT22;4943;52.550;13.462;2023-07-31T01:52:44;19.20;99.90
9808;DHT22;4943;52.550;13.462;2023-07-31T01:55:12;19.20;99.90
9808;DHT22;4943;52.550;13.462;2023-07-31T01:57:40;19.20;99.90
9808;DHT22;4943;52.550;13.462;2023-07-31T02:00:11;19.20;99.90
9808;DHT22;4943;52.550;13.462;2023-07-31T02:02:39;19.20;99.90
9808;DHT22;4943;52.550;13.462;2023-07-31T02:05:07;19.20;99.90
9808;DHT22;4943;52.550;13.462;2023-07-31T02:07:35;19.20;99.90
9808;DHT22;4943;52.550;13.462;2023-07-31T02:10:04;19.20;99.90
9808;DHT22;4943;52.550;13.462;2023-07-31T02:12:32;19.20;99.90
9808;DHT22;4943;52.550;13.462;2023-07-31T02:15:00;19.20;99.90
9808;DHT22;4943;52.550;13.462;2023-07-31T02:17:29;19.20;99.90
9808;DHT22;4943;52.550;13.462;2023-07-31T02:19:58;19.20;99.90
9808;DHT22;4943;52.550;13.462;2023-07-31T02:22:26;19.20;99.90
9808;DHT22;4943;52.550;13.462;2023-07-31T02:24:54;19.20;99.90
9808;DHT22;4943;52.550;13.462;2023-07-31T02:27:22;19.20;99.90
9808;DHT22;4943;52.550;13.462;2023-07-31T02:29:54;19.20;99.90
9808;DHT22;4943;52.550;13.462;2023-07-31T02:32:22;19.20;99.90
9808;DHT22;4943;52.550;13.462;2023-07-31T02:34:51;19.30;99.90
9808;DHT22;4943;52.550;13.462;2023-07-31T02:37:19;19.30;99.90
9808;DHT22;4943;52.550;13.462;2023-07-31T02:39:47;19.30;99.90
9808;DHT22;4943;52.550;13.462;2023-07-31T02:42:16;19.30;99.90
9808;DHT22;4943;52.550;13.462;2023-07-31T02:44:44;19.30;99.90
9808;DHT22;4943;52.550;13.462;2023-07-31T02:47:12;19.30;99.90
9808;DHT22;4943;52.550;13.462;2023-07-31T02:49:40;19.30;99.90
9808;DHT22;4943;52.550;13.462;2023-07-31T02:52:09;19.30;99.90
9808;DHT22;4943;52.550;13.462;2023-07-31T02:54:37;19.30;99.90
9808;DHT22;4943;52.550;13.462;2023-07-31T02:57:05;19.30;99.90
9808;DHT22;4943;52.550;13.462;2023-07-31T02:59:33;19.20;99.90
9808;DHT22;4943;52.550;13.462;2023-07-31T03:02:02;19.20;99.90
9808;DHT22;4943;52.550;13.462;2023-07-31T03:04:30;19.30;99.90
9808;DHT22;4943;52.550;13.462;2023-07-31T03:06:58;19.30;99.90
9808;DHT22;4943;52.550;13.462;2023-07-31T03:09:27;19.30;99.90
9808;DHT22;4943;52.550;13.462;2023-07-31T03:11:55;19.20;99.90
9808;DHT22;4943;52.550;13.462;2023-07-31T03:14:24;19.20;99.90
9808;DHT22;4943;52.550;13.462;2023-07-31T03:16:53;19.20;99.90
9808;DHT22;4943;52.550;13.462;2023-07-31T03:19:21;19.20;99.90
9808;DHT22;4943;52.550;13.462;2023-07-31T03:21:50;19.20;99.90
9808;DHT22;4943;52.550;13.462;2023-07-31T03:24:18;19.20;99.90
9808;DHT22;4943;52.550;13.462;2023-07-31T03:26:47;19.20;99.90
9808;DHT22;4943;52.550;13.462;2023-07-31T03:29:15;19.20;99.90
9808;DHT22;4943;52.550;13.462;2023-07-31T03:31:43;19.20;99.90
9808;DHT22;4943;52.550;13.462;2023-07-31T03:34:11;19.20;99.90
9808;DHT22;4943;52.550;13.462;2023-07-31T03:36:39;19.20;99.90
9808;DHT22;4943;52.550;13.462;2023-07-31T03:39:08;19.20;99.90
9808;DHT22;4943;52.550;13.462;2023-07-31T03:41:36;19.20;99.90
9808;DHT22;4943;52.550;13.462;2023-07-31T03:44:05;19.20;99.90
9808;DHT22;4943;52.550;13.462;2023-07-31T03:46:34;19.20;99.90
9808;DHT22;4943;52.550;13.462;2023-07-31T03:49:03;19.20;99.90
9808;DHT22;4943;52.550;13.462;2023-07-31T03:51:31;19.20;99.90
9808;DHT22;4943;52.550;13.462;2023-07-31T03:53:59;19.20;99.90
9808;DHT22;4943;52.550;13.462;2023-07-31T03:56:27;19.10;99.90
9808;DHT22;4943;52.550;13.462;2023-07-31T03:58:55;19.10;99.90
9808;DHT22;4943;52.550;13.462;2023-07-31T04:01:25;19.10;99.90
9808;DHT22;4943;52.550;13.462;2023-07-31T04:03:53;19.10;99.90
9808;DHT22;4943;52.550;13.462;2023-07-31T04:06:21;19.10;99.90
9808;DHT22;4943;52.550;13.462;2023-07-31T04:08:50;19.10;99.90
9808;DHT22;4943;52.550;13.462;2023-07-31T04:11:18;19.10;99.90
9808;DHT22;4943;52.550;13.462;2023-07-31T04:13:46;19.20;99.90
9808;DHT22;4943;52.550;13.462;2023-07-31T04:16:14;19.20;99.90
9808;DHT22;4943;52.550;13.462;2023-07-31T04:18:44;19.20;99.90
9808;DHT22;4943;52.550;13.462;2023-07-31T04:21:12;19.20;99.90
9808;DHT22;4943;52.550;13.462;2023-07-31T04:23:40;19.30;99.90
9808;DHT22;4943;52.550;13.462;2023-07-31T04:26:08;19.30;99.90
9808;DHT22;4943;52.550;13.462;2023-07-31T04:28:36;19.30;99.90
9808;DHT22;4943;52.550;13.462;2023-07-31T04:31:04;19.30;99.90
9808;DHT22;4943;52.550;13.462;2023-07-31T04:33:32;19.30;99.90
9808;DHT22;4943;52.550;13.462;2023-07-31T04:36:01;19.30;99.90
9808;DHT22;4943;52.550;13.462;2023-07-31T04:38:29;19.40;99.90
9808;DHT22;4943;52.550;13.462;2023-07-31T04:40:57;19.40;99.90
9808;DHT22;4943;52.550;13.462;2023-07-31T04:43:25;19.40;99.90
9808;DHT22;4943;52.550;13.462;2023-07-31T04:45:53;19.40;99.90
9808;DHT22;4943;52.550;13.462;2023-07-31T04:48:21;19.40;99.90
9808;DHT22;4943;52.550;13.462;2023-07-31T04:50:51;19.40;99.90
9808;DHT22;4943;52.550;13.462;2023-07-31T04:53:20;19.50;99.90
9808;DHT22;4943;52.550;13.462;2023-07-31T04:55:48;19.50;99.90
9808;DHT22;4943;52.550;13.462;2023-07-31T04:58:16;19.50;99.90
9808;DHT22;4943;52.550;13.462;2023-07-31T05:00:45;19.50;99.90
9808;DHT22;4943;52.550;13.462;2023-07-31T05:03:13;19.50;99.90
9808;DHT22;4943;52.550;13.462;2023-07-31T05:05:41;19.60;99.90
9808;DHT22;4943;52.550;13.462;2023-07-31T05:08:09;19.60;99.90
9808;DHT22;4943;52.550;13.462;2023-07-31T05:10:38;19.60;99.90
9808;DHT22;4943;52.550;13.462;2023-07-31T05:13:06;19.60;99.90
9808;DHT22;4943;52.550;13.462;2023-07-31T05:15:34;19.70;99.90
9808;DHT22;4943;52.550;13.462;2023-07-31T05:18:02;19.70;99.90
9808;DHT22;4943;52.550;13.462;2023-07-31T05:20:31;19.80;99.90
9808;DHT22;4943;52.550;13.462;2023-07-31T05:22:59;19.80;99.90
9808;DHT22;4943;52.550;13.462;2023-07-31T05:25:27;19.80;99.90
9808;DHT22;4943;52.550;13.462;2023-07-31T05:27:56;19.80;99.90
9808;DHT22;4943;52.550;13.462;2023-07-31T05:30:25;19.90;99.90
9808;DHT22;4943;52.550;13.462;2023-07-31T05:32:53;19.90;99.90
9808;DHT22;4943;52.550;13.462;2023-07-31T05:35:21;20.00;99.90
9808;DHT22;4943;52.550;13.462;2023-07-31T05:37:49;20.00;99.90
9808;DHT22;4943;52.550;13.462;2023-07-31T05:40:17;20.10;99.90
9808;DHT22;4943;52.550;13.462;2023-07-31T05:42:45;20.20;99.90
9808;DHT22;4943;52.550;13.462;2023-07-31T05:45:14;20.20;99.90
9808;DHT22;4943;52.550;13.462;2023-07-31T05:47:42;20.30;99.90
9808;DHT22;4943;52.550;13.462;2023-07-31T05:50:10;20.30;99.90
9808;DHT22;4943;52.550;13.462;2023-07-31T05:52:40;20.40;99.90
9808;DHT22;4943;52.550;13.462;2023-07-31T05:55:08;20.40;99.90
9808;DHT22;4943;52.550;13.462;2023-07-31T05:57:36;20.30;99.90
9808;DHT22;4943;52.550;13.462;2023-07-31T06:00:05;20.30;99.90
9808;DHT22;4943;52.550;13.462;2023-07-31T06:02:35;20.30;99.90
9808;DHT22;4943;52.550;13.462;2023-07-31T06:05:05;20.30;99.90
9808;DHT22;4943;52.550;13.462;2023-07-31T06:07:33;20.30;99.90
9808;DHT22;4943;52.550;13.462;2023-07-31T06:10:02;20.40;99.90
9808;DHT22;4943;52.550;13.462;2023-07-31T06:12:32;20.40;99.90
9808;DHT22;4943;52.550;13.462;2023-07-31T06:15:01;20.40;99.90
9808;DHT22;4943;52.550;13.462;2023-07-31T06:17:29;20.40;99.90
9808;DHT22;4943;52.550;13.462;2023-07-31T06:19:58;20.40;99.90
9808;DHT22;4943;52.550;13.462;2023-07-31T06:22:28;20.50;99.90
9808;DHT22;4943;52.550;13.462;2023-07-31T06:24:56;20.50;99.90
9808;DHT22;4943;52.550;13.462;2023-07-31T06:27:25;20.50;99.90
9808;DHT22;4943;52.550;13.462;2023-07-31T06:29:53;20.50;99.90
9808;DHT22;4943;52.550;13.462;2023-07-31T06:32:21;20.60;99.90
9808;DHT22;4943;52.550;13.462;2023-07-31T06:34:49;20.60;99.90
9808;DHT22;4943;52.550;13.462;2023-07-31T06:37:19;20.60;99.90
9808;DHT22;4943;52.550;13.462;2023-07-31T06:39:47;20.60;99.90
9808;DHT22;4943;52.550;13.462;2023-07-31T06:42:15;20.60;99.90
9808;DHT22;4943;52.550;13.462;2023-07-31T06:44:43;20.70;99.90
9808;DHT22;4943;52.550;13.462;2023-07-31T06:47:11;20.70;99.90
9808;DHT22;4943;52.550;13.462;2023-07-31T06:49:39;20.70;99.90
9808;DHT22;4943;52.550;13.462;2023-07-31T06:52:07;20.80;99.90
9808;DHT22;4943;52.550;13.462;2023-07-31T06:54:37;20.80;99.90
9808;DHT22;4943;52.550;13.462;2023-07-31T06:57:06;20.80;99.90
9808;DHT22;4943;52.550;13.462;2023-07-31T06:59:34;20.80;99.90
9808;DHT22;4943;52.550;13.462;2023-07-31T07:02:03;20.80;99.90
9808;DHT22;4943;52.550;13.462;2023-07-31T07:04:33;20.80;99.90
9808;DHT22;4943;52.550;13.462;2023-07-31T07:07:01;20.80;99.90
9808;DHT22;4943;52.550;13.462;2023-07-31T07:09:29;20.90;99.90
9808;DHT22;4943;52.550;13.462;2023-07-31T07:11:58;20.90;99.90
9808;DHT22;4943;52.550;13.462;2023-07-31T07:14:26;20.90;99.90
9808;DHT22;4943;52.550;13.462;2023-07-31T07:16:54;20.90;99.90
9808;DHT22;4943;52.550;13.462;2023-07-31T07:19:22;20.80;99.90
9808;DHT22;4943;52.550;13.462;2023-07-31T07:21:50;20.80;99.90
9808;DHT22;4943;52.550;13.462;2023-07-31T07:24:19;20.80;99.90
9808;DHT22;4943;52.550;13.462;2023-07-31T07:26:47;20.70;99.90
9808;DHT22;4943;52.550;13.462;2023-07-31T07:29:16;20.70;99.90
9808;DHT22;4943;52.550;13.462;2023-07-31T07:31:44;20.70;99.90
9808;DHT22;4943;52.550;13.462;2023-07-31T07:34:12;20.80;99.90
9808;DHT22;4943;52.550;13.462;2023-07-31T07:36:40;20.90;99.90
9808;DHT22;4943;52.550;13.462;2023-07-31T07:39:09;20.90;99.90
9808;DHT22;4943;52.550;13.462;2023-07-31T07:41:37;21.10;99.90
9808;DHT22;4943;52.550;13.462;2023-07-31T07:44:07;21.20;99.90
9808;DHT22;4943;52.550;13.462;2023-07-31T07:46:37;21.30;99.90
9808;DHT22;4943;52.550;13.462;2023-07-31T07:49:06;21.30;99.90
9808;DHT22;4943;52.550;13.462;2023-07-31T07:51:34;21.40;99.90
9808;DHT22;4943;52.550;13.462;2023-07-31T07:54:02;21.50;99.90
9808;DHT22;4943;52.550;13.462;2023-07-31T07:56:30;21.60;99.90
9808;DHT22;4943;52.550;13.462;2023-07-31T07:58:58;21.70;99.90
9808;DHT22;4943;52.550;13.462;2023-07-31T08:01:26;21.80;99.90
9808;DHT22;4943;52.550;13.462;2023-07-31T08:03:56;21.90;99.90
9808;DHT22;4943;52.550;13.462;2023-07-31T08:06:24;21.90;99.90
9808;DHT22;4943;52.550;13.462;2023-07-31T08:08:52;21.90;99.90
9808;DHT22;4943;52.550;13.462;2023-07-31T08:11:20;21.90;99.90
9808;DHT22;4943;52.550;13.462;2023-07-31T08:13:50;21.80;99.90
9808;DHT22;4943;52.550;13.462;2023-07-31T08:16:18;21.90;99.90
9808;DHT22;4943;52.550;13.462;2023-07-31T08:18:46;21.90;99.90
9808;DHT22;4943;52.550;13.462;2023-07-31T08:21:17;22.00;99.90
9808;DHT22;4943;52.550;13.462;2023-07-31T08:23:45;21.90;99.90
9808;DHT22;4943;52.550;13.462;2023-07-31T08:26:15;21.90;99.90
9808;DHT22;4943;52.550;13.462;2023-07-31T08:28:44;21.80;99.90
9808;DHT22;4943;52.550;13.462;2023-07-31T08:31:12;21.80;99.90
9808;DHT22;4943;52.550;13.462;2023-07-31T08:33:40;21.60;99.90
9808;DHT22;4943;52.550;13.462;2023-07-31T08:36:08;21.50;99.90
9808;DHT22;4943;52.550;13.462;2023-07-31T08:38:37;21.40;99.90
9808;DHT22;4943;52.550;13.462;2023-07-31T08:41:06;21.40;99.90
9808;DHT22;4943;52.550;13.462;2023-07-31T08:43:34;21.40;99.90
9808;DHT22;4943;52.550;13.462;2023-07-31T08:46:03;21.40;99.90
9808;DHT22;4943;52.550;13.462;2023-07-31T08:48:32;21.40;99.90
9808;DHT22;4943;52.550;13.462;2023-07-31T08:51:00;21.40;99.90
9808;DHT22;4943;52.550;13.462;2023-07-31T08:53:28;21.50;99.90
9808;DHT22;4943;52.550;13.462;2023-07-31T08:55:59;21.50;99.90
9808;DHT22;4943;52.550;13.462;2023-07-31T08:58:28;21.70;99.90
9808;DHT22;4943;52.550;13.462;2023-07-31T09:01:00;21.80;99.90
9808;DHT22;4943;52.550;13.462;2023-07-31T09:03:29;21.90;99.90
9808;DHT22;4943;52.550;13.462;2023-07-31T09:05:58;22.10;99.90
9808;DHT22;4943;52.550;13.462;2023-07-31T09:08:30;22.20;99.90
9808;DHT22;4943;52.550;13.462;2023-07-31T09:11:01;22.30;99.90
9808;DHT22;4943;52.550;13.462;2023-07-31T09:13:32;22.30;99.90
9808;DHT22;4943;52.550;13.462;2023-07-31T09:16:00;22.50;99.90
9808;DHT22;4943;52.550;13.462;2023-07-31T09:18:29;22.50;99.90
9808;DHT22;4943;52.550;13.462;2023-07-31T09:21:03;22.50;99.90
9808;DHT22;4943;52.550;13.462;2023-07-31T09:23:41;22.60;99.90
9808;DHT22;4943;52.550;13.462;2023-07-31T09:26:11;22.60;99.90
9808;DHT22;4943;52.550;13.462;2023-07-31T09:28:39;22.60;99.90
9808;DHT22;4943;52.550;13.462;2023-07-31T09:31:07;22.80;99.90
9808;DHT22;4943;52.550;13.462;2023-07-31T09:33:54;22.90;99.90
9808;DHT22;4943;52.550;13.462;2023-07-31T09:36:23;23.00;99.90
9808;DHT22;4943;52.550;13.462;2023-07-31T09:38:51;23.00;99.90
9808;DHT22;4943;52.550;13.462;2023-07-31T09:41:20;22.80;99.90
9808;DHT22;4943;52.550;13.462;2023-07-31T09:43:53;22.70;99.90
9808;DHT22;4943;52.550;13.462;2023-07-31T09:46:21;22.50;99.90
9808;DHT22;4943;52.550;13.462;2023-07-31T09:48:49;22.30;99.90
9808;DHT22;4943;52.550;13.462;2023-07-31T09:51:17;22.20;99.90
9808;DHT22;4943;52.550;13.462;2023-07-31T09:53:53;22.10;99.90
9808;DHT22;4943;52.550;13.462;2023-07-31T09:56:23;22.00;99.90
9808;DHT22;4943;52.550;13.462;2023-07-31T09:58:52;22.00;99.90
9808;DHT22;4943;52.550;13.462;2023-07-31T10:01:21;22.10;99.90
9808;DHT22;4943;52.550;13.462;2023-07-31T10:03:49;22.30;99.90
9808;DHT22;4943;52.550;13.462;2023-07-31T10:06:18;22.40;99.90
9808;DHT22;4943;52.550;13.462;2023-07-31T10:08:47;22.40;99.90
9808;DHT22;4943;52.550;13.462;2023-07-31T10:11:20;22.30;99.90
9808;DHT22;4943;52.550;13.462;2023-07-31T10:13:51;22.20;99.90
9808;DHT22;4943;52.550;13.462;2023-07-31T10:16:20;22.30;99.90
9808;DHT22;4943;52.550;13.462;2023-07-31T10:18:49;22.40;99.90
9808;DHT22;4943;52.550;13.462;2023-07-31T10:21:18;22.60;99.90
9808;DHT22;4943;52.550;13.462;2023-07-31T10:23:47;22.70;99.90
9808;DHT22;4943;52.550;13.462;2023-07-31T10:26:17;22.80;99.90
9808;DHT22;4943;52.550;13.462;2023-07-31T10:28:47;22.80;99.90
9808;DHT22;4943;52.550;13.462;2023-07-31T10:31:17;22.60;99.90
9808;DHT22;4943;52.550;13.462;2023-07-31T10:33:46;22.50;99.90
9808;DHT22;4943;52.550;13.462;2023-07-31T10:36:16;22.40;99.90
9808;DHT22;4943;52.550;13.462;2023-07-31T10:38:45;22.40;99.90
9808;DHT22;4943;52.550;13.462;2023-07-31T10:41:13;22.40;99.90
9808;DHT22;4943;52.550;13.462;2023-07-31T10:43:41;22.50;99.90
9808;DHT22;4943;52.550;13.462;2023-07-31T10:46:10;22.60;99.90
9808;DHT22;4943;52.550;13.462;2023-07-31T10:48:41;22.60;99.90
9808;DHT22;4943;52.550;13.462;2023-07-31T10:51:11;22.60;99.90
9808;DHT22;4943;52.550;13.462;2023-07-31T10:53:40;22.70;99.90
9808;DHT22;4943;52.550;13.462;2023-07-31T10:56:09;22.80;99.90
9808;DHT22;4943;52.550;13.462;2023-07-31T10:58:39;23.10;99.90
9808;DHT22;4943;52.550;13.462;2023-07-31T11:01:07;23.30;99.90
9808;DHT22;4943;52.550;13.462;2023-07-31T11:03:46;23.50;99.90
9808;DHT22;4943;52.550;13.462;2023-07-31T11:06:16;23.80;99.90
9808;DHT22;4943;52.550;13.462;2023-07-31T11:08:46;23.90;99.90
9808;DHT22;4943;52.550;13.462;2023-07-31T11:11:16;23.90;99.90
9808;DHT22;4943;52.550;13.462;2023-07-31T11:13:46;24.00;99.90
9808;DHT22;4943;52.550;13.462;2023-07-31T11:16:17;24.10;99.90
9808;DHT22;4943;52.550;13.462;2023-07-31T11:18:47;24.20;99.90
9808;DHT22;4943;52.550;13.462;2023-07-31T11:21:18;24.10;99.90
9808;DHT22;4943;52.550;13.462;2023-07-31T11:23:47;24.10;99.90
9808;DHT22;4943;52.550;13.462;2023-07-31T11:26:16;24.20;99.90
9808;DHT22;4943;52.550;13.462;2023-07-31T11:28:46;24.00;99.90
9808;DHT22;4943;52.550;13.462;2023-07-31T11:31:15;24.00;99.90
9808;DHT22;4943;52.550;13.462;2023-07-31T11:33:44;24.20;99.90
9808;DHT22;4943;52.550;13.462;2023-07-31T11:36:16;24.30;99.90
9808;DHT22;4943;52.550;13.462;2023-07-31T11:38:44;24.30;99.90
9808;DHT22;4943;52.550;13.462;2023-07-31T11:41:14;24.30;99.90
9808;DHT22;4943;52.550;13.462;2023-07-31T11:43:42;24.30;99.90
9808;DHT22;4943;52.550;13.462;2023-07-31T11:46:11;24.20;99.90
9808;DHT22;4943;52.550;13.462;2023-07-31T11:48:40;24.10;99.90
9808;DHT22;4943;52.550;13.462;2023-07-31T11:51:10;24.00;99.90
9808;DHT22;4943;52.550;13.462;2023-07-31T11:53:43;23.90;99.90
9808;DHT22;4943;52.550;13.462;2023-07-31T11:56:13;23.90;99.90
9808;DHT22;4943;52.550;13.462;2023-07-31T11:58:42;23.90;99.90
9808;DHT22;4943;52.550;13.462;2023-07-31T12:01:10;23.90;99.90
9808;DHT22;4943;52.550;13.462;2023-07-31T12:03:42;23.90;99.90
9808;DHT22;4943;52.550;13.462;2023-07-31T12:06:10;23.90;99.90
9808;DHT22;4943;52.550;13.462;2023-07-31T12:08:40;23.80;99.90
9808;DHT22;4943;52.550;13.462;2023-07-31T12:11:09;23.80;99.90
9808;DHT22;4943;52.550;13.462;2023-07-31T12:13:37;23.80;99.90
9808;DHT22;4943;52.550;13.462;2023-07-31T12:16:05;23.70;99.90
9808;DHT22;4943;52.550;13.462;2023-07-31T12:18:34;23.60;99.90
9808;DHT22;4943;52.550;13.462;2023-07-31T12:21:04;23.70;99.90
9808;DHT22;4943;52.550;13.462;2023-07-31T12:23:34;23.70;99.90
9808;DHT22;4943;52.550;13.462;2023-07-31T12:26:05;23.70;99.90
9808;DHT22;4943;52.550;13.462;2023-07-31T12:28:38;23.70;99.90
9808;DHT22;4943;52.550;13.462;2023-07-31T12:31:09;23.90;99.90
9808;DHT22;4943;52.550;13.462;2023-07-31T12:33:39;24.00;99.90
9808;DHT22;4943;52.550;13.462;2023-07-31T12:36:09;24.20;99.90
9808;DHT22;4943;52.550;13.462;2023-07-31T12:38:37;24.20;99.90
9808;DHT22;4943;52.550;13.462;2023-07-31T12:41:07;24.20;99.90
9808;DHT22;4943;52.550;13.462;2023-07-31T12:43:38;24.30;99.90
9808;DHT22;4943;52.550;13.462;2023-07-31T12:46:07;24.30;99.90
9808;DHT22;4943;52.550;13.462;2023-07-31T12:48:36;24.40;99.90
9808;DHT22;4943;52.550;13.462;2023-07-31T12:51:04;24.50;99.90
9808;DHT22;4943;52.550;13.462;2023-07-31T12:53:33;24.60;99.90
9808;DHT22;4943;52.550;13.462;2023-07-31T12:56:01;24.80;99.90
9808;DHT22;4943;52.550;13.462;2023-07-31T12:58:31;25.10;99.90
9808;DHT22;4943;52.550;13.462;2023-07-31T13:00:59;25.40;99.90
9808;DHT22;4943;52.550;13.462;2023-07-31T13:03:28;25.60;99.90
9808;DHT22;4943;52.550;13.462;2023-07-31T13:05:57;25.60;99.90
9808;DHT22;4943;52.550;13.462;2023-07-31T13:08:25;25.40;99.90
9808;DHT22;4943;52.550;13.462;2023-07-31T13:10:53;25.30;99.90
9808;DHT22;4943;52.550;13.462;2023-07-31T13:13:21;25.10;99.90
9808;DHT22;4943;52.550;13.462;2023-07-31T13:15:51;25.00;99.90
9808;DHT22;4943;52.550;13.462;2023-07-31T13:18:19;24.80;99.90
9808;DHT22;4943;52.550;13.462;2023-07-31T13:20:47;24.70;99.90
9808;DHT22;4943;52.550;13.462;2023-07-31T13:23:15;24.50;99.90
9808;DHT22;4943;52.550;13.462;2023-07-31T13:25:43;24.40;99.90
9808;DHT22;4943;52.550;13.462;2023-07-31T13:28:11;24.40;99.90
9808;DHT22;4943;52.550;13.462;2023-07-31T13:30:39;24.50;99.90
9808;DHT22;4943;52.550;13.462;2023-07-31T13:33:09;24.70;99.90
9808;DHT22;4943;52.550;13.462;2023-07-31T13:35:57;24.80;99.90
9808;DHT22;4943;52.550;13.462;2023-07-31T13:38:25;24.90;99.90
9808;DHT22;4943;52.550;13.462;2023-07-31T13:40:53;25.00;99.90
9808;DHT22;4943;52.550;13.462;2023-07-31T13:43:21;25.00;99.90
9808;DHT22;4943;52.550;13.462;2023-07-31T13:45:49;25.10;99.90
9808;DHT22;4943;52.550;13.462;2023-07-31T13:48:18;25.10;99.90
9808;DHT22;4943;52.550;13.462;2023-07-31T13:50:46;25.10;99.90
9808;DHT22;4943;52.550;13.462;2023-07-31T13:53:14;25.20;99.90
9808;DHT22;4943;52.550;13.462;2023-07-31T13:55:42;25.20;99.90
9808;DHT22;4943;52.550;13.462;2023-07-31T13:58:12;25.30;99.90
9808;DHT22;4943;52.550;13.462;2023-07-31T14:00:40;25.40;99.90
9808;DHT22;4943;52.550;13.462;2023-07-31T14:03:09;25.60;99.90
9808;DHT22;4943;52.550;13.462;2023-07-31T14:05:38;25.70;99.90
9808;DHT22;4943;52.550;13.462;2023-07-31T14:08:07;25.90;99.90
9808;DHT22;4943;52.550;13.462;2023-07-31T14:10:35;26.00;99.90
9808;DHT22;4943;52.550;13.462;2023-07-31T14:13:03;25.90;99.90
9808;DHT22;4943;52.550;13.462;2023-07-31T14:15:31;25.80;99.90
9808;DHT22;4943;52.550;13.462;2023-07-31T14:18:02;25.70;99.90
9808;DHT22;4943;52.550;13.462;2023-07-31T14:20:31;25.60;99.90
9808;DHT22;4943;52.550;13.462;2023-07-31T14:23:00;25.40;99.90
9808;DHT22;4943;52.550;13.462;2023-07-31T14:25:28;25.30;99.90
9808;DHT22;4943;52.550;13.462;2023-07-31T14:27:56;25.30;99.90
9808;DHT22;4943;52.550;13.462;2023-07-31T14:30:25;25.20;99.90
9808;DHT22;4943;52.550;13.462;2023-07-31T14:32:53;25.10;99.90
9808;DHT22;4943;52.550;13.462;2023-07-31T14:35:21;25.00;99.90
9808;DHT22;4943;52.550;13.462;2023-07-31T14:37:49;24.90;99.90
9808;DHT22;4943;52.550;13.462;2023-07-31T14:40:18;24.90;99.90
9808;DHT22;4943;52.550;13.462;2023-07-31T14:42:46;24.90;99.90
9808;DHT22;4943;52.550;13.462;2023-07-31T14:45:14;24.80;99.90
9808;DHT22;4943;52.550;13.462;2023-07-31T14:47:42;24.90;99.90
9808;DHT22;4943;52.550;13.462;2023-07-31T14:50:11;24.90;99.90
9808;DHT22;4943;52.550;13.462;2023-07-31T14:52:39;24.80;99.90
9808;DHT22;4943;52.550;13.462;2023-07-31T14:55:07;24.80;99.90
9808;DHT22;4943;52.550;13.462;2023-07-31T14:57:37;24.70;99.90
9808;DHT22;4943;52.550;13.462;2023-07-31T15:00:06;24.70;99.90
9808;DHT22;4943;52.550;13.462;2023-07-31T15:02:35;24.60;99.90
9808;DHT22;4943;52.550;13.462;2023-07-31T15:05:04;24.60;99.90
9808;DHT22;4943;52.550;13.462;2023-07-31T15:07:32;24.50;99.90
9808;DHT22;4943;52.550;13.462;2023-07-31T15:10:01;24.50;99.90
9808;DHT22;4943;52.550;13.462;2023-07-31T15:12:29;24.40;99.90
9808;DHT22;4943;52.550;13.462;2023-07-31T15:14:59;24.40;99.90
9808;DHT22;4943;52.550;13.462;2023-07-31T15:17:27;24.40;99.90
9808;DHT22;4943;52.550;13.462;2023-07-31T15:19:56;24.40;99.90
9808;DHT22;4943;52.550;13.462;2023-07-31T15:22:26;24.30;99.90
9808;DHT22;4943;52.550;13.462;2023-07-31T15:24:55;24.20;99.90
9808;DHT22;4943;52.550;13.462;2023-07-31T15:27:23;24.20;99.90
9808;DHT22;4943;52.550;13.462;2023-07-31T15:29:51;24.20;99.90
9808;DHT22;4943;52.550;13.462;2023-07-31T15:32:21;24.30;99.90
9808;DHT22;4943;52.550;13.462;2023-07-31T15:34:50;24.50;99.90
9808;DHT22;4943;52.550;13.462;2023-07-31T15:37:18;24.70;99.90
9808;DHT22;4943;52.550;13.462;2023-07-31T15:39:46;24.80;99.90
9808;DHT22;4943;52.550;13.462;2023-07-31T15:42:14;24.70;99.90
9808;DHT22;4943;52.550;13.462;2023-07-31T15:44:43;24.60;99.90
9808;DHT22;4943;52.550;13.462;2023-07-31T15:47:11;24.50;99.90
9808;DHT22;4943;52.550;13.462;2023-07-31T15:49:40;24.40;99.90
9808;DHT22;4943;52.550;13.462;2023-07-31T15:52:08;24.40;99.90
9808;DHT22;4943;52.550;13.462;2023-07-31T15:54:36;24.40;99.90